createdAt,value
2018-08-06T06:53:16.933Z,23.40
2018-08-06T06:55:44.469Z,23.50
2018-08-06T06:58:11.996Z,23.60
2018-08-06T07:00:39.520Z,23.70
2018-08-06T07:03:07.040Z,23.80
2018-08-06T07:05:34.595Z,23.80
2018-08-06T07:08:02.140Z,23.90
2018-08-06T07:10:29.680Z,23.90
2018-08-06T07:12:57.216Z,24.00
2018-08-06T07:15:24.744Z,24.10
2018-08-06T07:17:52.284Z,24.20
2018-08-06T07:20:21.012Z,24.10
2018-08-06T07:22:48.613Z,24.20
2018-08-06T07:25:16.178Z,24.20
2018-08-06T07:27:44.056Z,24.10
2018-08-06T07:30:12.493Z,24.10
2018-08-06T07:32:40.828Z,24.20
2018-08-06T07:35:09.004Z,24.20
2018-08-06T07:37:37.061Z,24.20
2018-08-06T07:40:05.564Z,24.20
2018-08-06T07:42:33.056Z,24.20
2018-08-06T07:45:00.599Z,24.20
2018-08-06T07:47:28.138Z,24.30
2018-08-06T07:49:55.757Z,24.30
2018-08-06T07:52:23.272Z,24.50
2018-08-06T07:54:50.816Z,24.50
2018-08-06T07:57:18.340Z,24.90
2018-08-06T07:59:49.991Z,25.10
2018-08-06T08:02:17.464Z,25.20
2018-08-06T08:04:45.013Z,25.50
2018-08-06T08:07:12.541Z,25.60
2018-08-06T08:09:40.081Z,25.80
2018-08-06T08:12:07.603Z,25.90
2018-08-06T08:14:35.170Z,26.00
2018-08-06T11:35:40.332Z,25.10
2018-08-06T11:38:07.864Z,25.60
2018-08-06T11:40:35.436Z,25.90
2018-08-06T11:43:02.966Z,26.10
2018-08-06T11:45:30.541Z,26.40
2018-08-06T11:47:58.069Z,26.70
2018-08-06T11:50:25.596Z,26.80
2018-08-06T11:52:53.176Z,26.90
2018-08-06T11:55:20.695Z,27.00
2018-08-06T11:57:48.283Z,27.10
2018-08-06T12:00:17.653Z,27.20
2018-08-06T12:02:45.200Z,27.20
2018-08-06T12:05:12.733Z,27.30
2018-08-06T12:07:40.264Z,27.30
2018-08-06T12:10:08.859Z,27.40
2018-08-06T12:12:38.574Z,27.40
2018-08-06T12:15:06.738Z,27.40
2018-08-06T12:17:34.226Z,27.50
2018-08-06T12:20:01.769Z,27.40
2018-08-06T12:22:29.368Z,27.30
2018-08-06T12:24:56.912Z,27.10
2018-08-06T12:27:24.478Z,27.00
2018-08-06T12:29:52.169Z,26.90
2018-08-06T12:32:19.745Z,26.90
2018-08-06T12:34:47.326Z,26.90
2018-08-06T12:37:14.853Z,26.80
2018-08-06T12:39:42.368Z,26.80
2018-08-06T12:42:09.901Z,26.90
2018-08-06T12:44:37.423Z,27.00
2018-08-06T12:47:04.981Z,26.80
2018-08-06T12:49:32.545Z,26.70
2018-08-06T12:52:00.224Z,26.50
2018-08-06T12:54:27.765Z,26.50
2018-08-06T12:56:55.284Z,26.70
2018-08-06T12:59:22.804Z,26.80
2018-08-06T13:01:50.332Z,26.70
2018-08-06T13:04:17.901Z,26.70
2018-08-06T13:06:45.425Z,26.70
2018-08-06T13:09:12.947Z,26.60
2018-08-06T13:11:40.487Z,26.70
2018-08-06T13:14:08.135Z,26.70
2018-08-06T13:16:35.674Z,26.70
2018-08-06T13:19:03.295Z,26.70
2018-08-06T13:21:30.955Z,26.70
2018-08-06T13:23:58.492Z,26.70
2018-08-06T13:26:26.021Z,26.80
2018-08-06T13:28:53.564Z,26.80
2018-08-06T13:31:21.121Z,26.80
2018-08-06T13:33:48.647Z,26.80
2018-08-06T13:36:16.167Z,26.90
2018-08-06T13:38:43.770Z,26.90
2018-08-06T13:41:11.312Z,26.90
2018-08-06T13:43:39.012Z,26.90
2018-08-06T13:46:06.584Z,26.90
2018-08-06T13:48:38.308Z,26.90
2018-08-06T13:51:06.215Z,26.90
2018-08-06T13:53:33.765Z,26.90
2018-08-06T13:56:01.312Z,27.20
2018-08-06T13:58:28.856Z,27.40
2018-08-06T14:00:56.380Z,27.40
2018-08-06T14:03:24.008Z,27.30
2018-08-06T14:05:51.540Z,27.20
2018-08-06T14:08:19.070Z,27.20
2018-08-06T14:10:46.591Z,27.00
2018-08-06T14:13:14.168Z,26.90
2018-08-06T14:15:41.708Z,26.80
2018-08-06T14:18:09.236Z,26.80
2018-08-06T14:20:36.961Z,26.80
2018-08-06T14:23:04.532Z,26.70
2018-08-06T14:25:32.089Z,26.70
2018-08-06T14:27:59.671Z,26.70
2018-08-06T14:30:27.226Z,26.70
2018-08-06T14:32:54.756Z,26.70
2018-08-06T14:35:22.295Z,26.60
2018-08-06T14:37:49.815Z,26.60
2018-08-06T14:40:18.517Z,26.50
2018-08-06T14:42:46.353Z,26.60
2018-08-06T14:45:13.930Z,26.60
2018-08-06T14:47:41.453Z,26.60
2018-08-06T14:50:09.811Z,26.70
2018-08-06T14:52:37.618Z,26.70
2018-08-06T14:55:05.159Z,26.70
2018-08-06T14:57:37.647Z,26.70
2018-08-06T15:00:08.460Z,26.70
2018-08-06T15:02:35.984Z,26.70
2018-08-06T15:05:03.524Z,26.70
2018-08-06T15:07:31.398Z,26.70
2018-08-06T15:09:58.940Z,26.70
2018-08-06T15:12:26.460Z,26.70
2018-08-06T15:14:54.016Z,26.50
2018-08-06T15:17:21.547Z,26.30
2018-08-06T15:19:49.184Z,26.10
2018-08-06T15:22:16.716Z,26.00
2018-08-06T15:24:44.399Z,26.50
2018-08-06T15:27:11.912Z,26.80
2018-08-06T15:29:39.847Z,27.20
2018-08-06T15:32:07.583Z,27.60
2018-08-06T15:34:35.084Z,27.80
2018-08-06T15:37:02.823Z,27.60
2018-08-06T15:39:30.344Z,27.70
2018-08-06T15:41:57.892Z,27.80
2018-08-06T15:44:25.432Z,28.00
2018-08-06T15:46:52.976Z,28.00
2018-08-06T15:49:20.504Z,28.10
2018-08-06T15:51:48.052Z,28.10
2018-08-06T15:54:15.584Z,28.30
2018-08-06T15:56:43.103Z,28.40
2018-08-06T15:59:10.624Z,28.60
2018-08-06T16:01:38.153Z,28.60
2018-08-06T16:04:05.675Z,28.60
2018-08-06T16:06:33.191Z,28.60
2018-08-06T16:09:00.716Z,28.60
2018-08-06T16:11:28.298Z,28.70
2018-08-06T16:13:55.808Z,28.60
2018-08-06T16:16:23.344Z,28.70
2018-08-06T16:18:50.876Z,28.80
2018-08-06T16:21:18.400Z,28.70
2018-08-06T16:23:45.950Z,28.60
2018-08-06T16:26:13.509Z,28.50
2018-08-06T16:28:41.074Z,28.60
2018-08-06T16:31:08.635Z,28.60
2018-08-06T16:33:36.227Z,28.70
2018-08-06T16:36:03.780Z,28.70
2018-08-06T16:38:31.412Z,28.80
2018-08-06T16:40:58.961Z,28.50
2018-08-06T16:43:26.476Z,28.50
2018-08-06T16:45:54.056Z,28.00
2018-08-06T16:48:21.585Z,27.80
2018-08-06T16:50:49.136Z,27.80
2018-08-06T16:53:16.679Z,27.70
2018-08-06T16:55:44.306Z,27.60
2018-08-06T16:58:11.908Z,27.70
2018-08-06T17:00:39.462Z,27.70
2018-08-06T17:03:07.071Z,27.70
2018-08-06T17:05:34.756Z,27.80
2018-08-06T17:08:02.328Z,27.70
2018-08-06T17:10:29.867Z,27.70
2018-08-06T17:12:57.392Z,27.60
2018-08-06T17:15:24.920Z,27.30
2018-08-06T17:17:53.483Z,27.10
2018-08-06T17:20:22.013Z,27.00
2018-08-06T17:22:50.392Z,27.00
2018-08-06T17:25:18.071Z,27.00
2018-08-06T17:27:45.610Z,26.90
2018-08-06T17:30:13.689Z,27.00
2018-08-06T17:32:41.220Z,27.10
2018-08-06T17:35:09.838Z,27.10
2018-08-06T17:37:37.389Z,27.10
2018-08-06T17:40:06.536Z,27.20
2018-08-06T17:42:34.190Z,27.20
2018-08-06T17:45:01.718Z,27.20
2018-08-06T17:47:29.245Z,27.20
2018-08-06T17:49:56.773Z,27.30
2018-08-06T17:52:24.296Z,27.40
2018-08-06T17:54:51.832Z,27.50
2018-08-06T17:57:19.370Z,27.60
2018-08-06T17:59:46.900Z,27.60
2018-08-06T18:02:14.614Z,27.70
2018-08-06T18:04:42.142Z,27.70
2018-08-06T18:07:09.802Z,27.70
2018-08-06T18:09:37.347Z,27.80
2018-08-06T18:12:04.887Z,27.80
2018-08-06T18:14:33.272Z,27.60
2018-08-06T18:17:00.796Z,27.50
2018-08-06T18:19:28.316Z,27.40
2018-08-06T18:21:55.843Z,27.30
2018-08-06T18:24:23.480Z,27.30
2018-08-06T18:26:51.019Z,27.30
2018-08-06T18:29:18.557Z,27.20
2018-08-06T18:31:46.124Z,27.20
2018-08-06T18:34:13.655Z,27.10
2018-08-06T18:36:41.229Z,27.00
2018-08-06T18:39:10.172Z,27.10
2018-08-06T18:41:37.688Z,27.20
2018-08-06T18:44:05.252Z,27.30
2018-08-06T18:46:32.790Z,27.50
2018-08-06T18:49:00.312Z,27.60
2018-08-06T18:51:27.845Z,26.80
2018-08-06T18:53:55.385Z,26.50
2018-08-06T18:56:23.027Z,26.30
2018-08-06T18:58:50.564Z,26.20
2018-08-06T19:01:18.108Z,26.10
2018-08-06T19:03:45.655Z,25.90
2018-08-06T19:06:13.190Z,25.80
2018-08-06T19:08:40.717Z,25.70
2018-08-06T19:11:08.256Z,25.60
2018-08-06T19:13:41.324Z,25.60
2018-08-06T19:18:57.700Z,25.60
2018-08-06T19:21:25.233Z,25.80
2018-08-06T19:23:57.160Z,25.80
2018-08-06T19:26:24.699Z,25.70
2018-08-06T19:28:52.224Z,25.70
2018-08-06T19:31:26.476Z,25.60
2018-08-06T19:33:54.647Z,25.50
2018-08-06T19:36:22.312Z,25.40
2018-08-06T19:38:49.863Z,25.30
2018-08-06T19:41:17.392Z,25.20
2018-08-06T19:43:44.931Z,25.20
2018-08-06T19:46:12.455Z,25.00
2018-08-06T19:48:40.009Z,25.00
2018-08-06T19:51:07.546Z,25.00
2018-08-06T19:53:35.089Z,24.90
2018-08-06T19:56:08.072Z,24.70
2018-08-06T19:58:35.647Z,24.60
2018-08-06T20:01:03.177Z,24.70
2018-08-06T20:03:30.755Z,24.50
2018-08-06T20:05:58.268Z,24.40
2018-08-06T20:08:25.811Z,24.30
2018-08-06T20:10:53.336Z,24.20
2018-08-06T20:13:20.876Z,24.20
2018-08-06T20:15:48.441Z,24.20
2018-08-06T20:18:16.023Z,24.30
2018-08-06T20:20:43.555Z,24.10
2018-08-06T20:23:11.120Z,23.90
2018-08-06T20:25:38.674Z,23.80
2018-08-06T20:28:06.245Z,23.70
2018-08-06T20:30:39.410Z,23.80
2018-08-06T20:33:06.967Z,23.80
2018-08-06T20:35:37.369Z,23.80
2018-08-06T20:38:05.170Z,23.60
2018-08-06T20:41:38.941Z,23.50
2018-08-06T20:44:06.744Z,24.20
2018-08-06T20:46:34.311Z,24.40
2018-08-06T20:49:01.911Z,24.50
2018-08-06T20:51:29.448Z,24.60
2018-08-06T20:54:00.436Z,24.60
2018-08-06T20:56:27.960Z,24.60
2018-08-06T20:58:55.509Z,24.60
2018-08-06T21:01:23.040Z,24.50
2018-08-06T21:03:50.619Z,24.50
2018-08-06T21:06:18.147Z,24.50
2018-08-06T21:08:47.724Z,24.50
2018-08-06T21:11:16.135Z,24.50
2018-08-06T21:13:43.684Z,24.50
2018-08-06T21:16:11.219Z,24.50
2018-08-06T21:18:38.784Z,24.50
2018-08-06T21:21:06.320Z,24.50
2018-08-06T21:23:33.876Z,24.40
2018-08-06T21:26:01.403Z,24.40
2018-08-06T21:28:28.932Z,24.40
2018-08-06T21:30:56.468Z,24.40
2018-08-06T21:33:23.999Z,24.30
2018-08-06T21:35:51.559Z,24.20
2018-08-06T21:38:19.172Z,24.20
2018-08-06T21:40:46.718Z,24.10
2018-08-06T21:43:14.255Z,24.10
2018-08-06T21:45:41.825Z,24.10
2018-08-06T21:48:09.324Z,24.10
2018-08-06T21:50:37.072Z,24.00
2018-08-06T21:53:04.527Z,24.00
2018-08-06T21:55:37.556Z,24.00
2018-08-06T21:58:05.095Z,24.00
2018-08-06T22:00:37.328Z,24.00
2018-08-06T22:03:06.100Z,24.00
2018-08-06T22:05:33.704Z,23.90
2018-08-06T22:08:01.224Z,23.90
2018-08-06T22:10:28.854Z,23.90
2018-08-06T22:12:56.385Z,23.80
2018-08-06T22:15:23.956Z,23.80
2018-08-06T22:17:51.476Z,23.80
2018-08-06T22:20:19.041Z,23.80
2018-08-06T22:22:46.572Z,23.80
2018-08-06T22:25:14.140Z,23.70
2018-08-06T22:27:41.708Z,23.80
2018-08-06T22:30:10.093Z,23.80
2018-08-06T22:32:37.660Z,23.70
2018-08-06T22:35:06.252Z,23.70
2018-08-06T22:37:33.787Z,23.70
2018-08-06T22:40:01.364Z,23.70
2018-08-06T22:42:28.867Z,23.70
2018-08-06T22:44:56.415Z,23.70
2018-08-06T22:47:23.943Z,23.70
2018-08-06T22:49:51.487Z,23.70
2018-08-06T22:52:19.034Z,23.70
2018-08-06T22:54:46.568Z,23.70
2018-08-06T22:57:14.096Z,23.70
2018-08-06T22:59:41.652Z,23.70
2018-08-06T23:02:09.216Z,23.70
2018-08-06T23:04:36.771Z,23.70
2018-08-06T23:07:04.301Z,23.70
2018-08-06T23:09:31.844Z,23.70
2018-08-06T23:11:59.436Z,23.70
2018-08-06T23:14:26.985Z,23.70
2018-08-06T23:16:54.524Z,23.70
2018-08-06T23:19:22.044Z,23.70
2018-08-06T23:21:49.818Z,23.70
2018-08-06T23:24:17.367Z,23.70
2018-08-06T23:26:44.892Z,23.70
2018-08-06T23:29:12.424Z,23.70
2018-08-06T23:31:39.952Z,23.60
2018-08-06T23:34:07.470Z,23.60
2018-08-06T23:36:35.010Z,23.60
2018-08-06T23:39:02.625Z,23.60
2018-08-06T23:41:30.147Z,23.60
2018-08-06T23:43:57.718Z,23.60
2018-08-06T23:46:25.332Z,23.60
2018-08-06T23:48:52.943Z,23.50
2018-08-06T23:51:20.480Z,23.50
2018-08-06T23:53:48.003Z,23.40
2018-08-06T23:56:15.537Z,23.40
2018-08-06T23:58:43.064Z,23.40
